sensor_id;sensor_type;location;lat;lon;timestamp;pressure;altitude;pressure_sealevel;temperature;humidity
29239;BME280;16267;48.194;11.546;2023-08-08T00:02:08;96207.09;;;14.40;69.91
29239;BME280;16267;48.194;11.546;2023-08-08T00:04:34;96201.34;;;14.38;69.50
29239;BME280;16267;48.194;11.546;2023-08-08T00:07:00;96193.69;;;14.36;69.66
29239;BME280;16267;48.194;11.546;2023-08-08T00:09:26;96193.69;;;14.36;70.00
29239;BME280;16267;48.194;11.546;2023-08-08T00:12:06;96189.44;;;14.35;69.79
29239;BME280;16267;48.194;11.546;2023-08-08T00:14:32;96191.03;;;14.33;69.34
29239;BME280;16267;48.194;11.546;2023-08-08T00:16:58;96196.13;;;14.31;69.31
29239;BME280;16267;48.194;11.546;2023-08-08T00:19:24;96196.53;;;14.29;68.78
29239;BME280;16267;48.194;11.546;2023-08-08T00:21:50;96196.88;;;14.31;69.69
29239;BME280;16267;48.194;11.546;2023-08-08T00:24:15;96184.88;;;14.32;69.98
29239;BME280;16267;48.194;11.546;2023-08-08T00:26:41;96194.53;;;14.33;69.96
29239;BME280;16267;48.194;11.546;2023-08-08T00:29:07;96189.88;;;14.34;69.83
29239;BME280;16267;48.194;11.546;2023-08-08T00:31:33;96193.34;;;14.34;69.72
29239;BME280;16267;48.194;11.546;2023-08-08T00:33:58;96185.31;;;14.31;68.80
29239;BME280;16267;48.194;11.546;2023-08-08T00:36:24;96189.13;;;14.33;69.45
29239;BME280;16267;48.194;11.546;2023-08-08T00:38:50;96181.53;;;14.28;68.91
29239;BME280;16267;48.194;11.546;2023-08-08T00:41:15;96181.88;;;14.30;69.49
29239;BME280;16267;48.194;11.546;2023-08-08T00:43:41;96186.50;;;14.29;69.14
29239;BME280;16267;48.194;11.546;2023-08-08T00:46:09;96179.56;;;14.28;69.21
29239;BME280;16267;48.194;11.546;2023-08-08T00:48:35;96184.63;;;14.26;69.22
29239;BME280;16267;48.194;11.546;2023-08-08T00:51:01;96189.97;;;14.30;69.54
29239;BME280;16267;48.194;11.546;2023-08-08T00:57:08;96184.22;;;14.28;69.87
29239;BME280;16267;48.194;11.546;2023-08-08T00:59:34;96178.06;;;14.27;69.65
29239;BME280;16267;48.194;11.546;2023-08-08T01:01:59;96175.38;;;14.27;69.37
29239;BME280;16267;48.194;11.546;2023-08-08T01:04:26;96176.88;;;14.28;69.72
29239;BME280;16267;48.194;11.546;2023-08-08T01:09:59;96172.66;;;14.27;68.92
29239;BME280;16267;48.194;11.546;2023-08-08T01:12:47;96176.88;;;14.28;69.11
29239;BME280;16267;48.194;11.546;2023-08-08T01:15:15;96179.16;;;14.30;69.42
29239;BME280;16267;48.194;11.546;2023-08-08T01:17:44;96178.38;;;14.29;69.68
29239;BME280;16267;48.194;11.546;2023-08-08T01:20:11;96181.88;;;14.30;69.97
29239;BME280;16267;48.194;11.546;2023-08-08T01:25:30;96174.19;;;14.28;69.44
29239;BME280;16267;48.194;11.546;2023-08-08T01:27:56;96177.28;;;14.27;69.40
29239;BME280;16267;48.194;11.546;2023-08-08T01:30:22;96167.28;;;14.27;69.96
29239;BME280;16267;48.194;11.546;2023-08-08T01:32:47;96163.97;;;14.20;69.04
29239;BME280;16267;48.194;11.546;2023-08-08T01:35:13;96163.13;;;14.23;70.02
29239;BME280;16267;48.194;11.546;2023-08-08T01:37:44;96161.59;;;14.22;69.66
29239;BME280;16267;48.194;11.546;2023-08-08T01:40:14;96165.91;;;14.19;69.04
29239;BME280;16267;48.194;11.546;2023-08-08T01:42:43;96153.16;;;14.20;69.73
29239;BME280;16267;48.194;11.546;2023-08-08T01:45:10;96158.56;;;14.20;69.82
29239;BME280;16267;48.194;11.546;2023-08-08T01:47:37;96163.53;;;14.21;70.15
29239;BME280;16267;48.194;11.546;2023-08-08T01:50:03;96157.81;;;14.19;70.11
29239;BME280;16267;48.194;11.546;2023-08-08T01:52:29;96156.25;;;14.18;70.00
29239;BME280;16267;48.194;11.546;2023-08-08T01:54:54;96151.63;;;14.19;70.12
29239;BME280;16267;48.194;11.546;2023-08-08T01:57:20;96156.25;;;14.18;70.09
29239;BME280;16267;48.194;11.546;2023-08-08T01:59:46;96154.75;;;14.17;69.87
29239;BME280;16267;48.194;11.546;2023-08-08T02:02:12;96157.88;;;14.16;70.11
29239;BME280;16267;48.194;11.546;2023-08-08T02:04:38;96150.19;;;14.14;70.21
29239;BME280;16267;48.194;11.546;2023-08-08T02:07:03;96139.81;;;14.13;70.00
29239;BME280;16267;48.194;11.546;2023-08-08T02:09:29;96141.00;;;14.12;69.93
29239;BME280;16267;48.194;11.546;2023-08-08T02:11:55;96135.25;;;14.10;69.98
29239;BME280;16267;48.194;11.546;2023-08-08T02:14:21;96143.78;;;14.08;70.07
29239;BME280;16267;48.194;11.546;2023-08-08T02:16:46;96138.78;;;14.06;70.41
29239;BME280;16267;48.194;11.546;2023-08-08T02:19:12;96142.31;;;14.03;70.21
29239;BME280;16267;48.194;11.546;2023-08-08T02:21:38;96138.13;;;14.02;70.21
29239;BME280;16267;48.194;11.546;2023-08-08T02:24:04;96129.69;;;14.00;70.31
29239;BME280;16267;48.194;11.546;2023-08-08T02:26:29;96140.13;;;13.98;70.08
29239;BME280;16267;48.194;11.546;2023-08-08T02:29:11;96133.63;;;13.96;70.41
29239;BME280;16267;48.194;11.546;2023-08-08T02:31:36;96134.81;;;13.95;70.37
29239;BME280;16267;48.194;11.546;2023-08-08T02:34:02;96136.41;;;13.92;70.42
29239;BME280;16267;48.194;11.546;2023-08-08T02:36:28;96136.41;;;13.92;70.48
29239;BME280;16267;48.194;11.546;2023-08-08T02:38:54;96142.63;;;13.89;70.33
29239;BME280;16267;48.194;11.546;2023-08-08T02:41:20;96138.41;;;13.88;70.36
29239;BME280;16267;48.194;11.546;2023-08-08T02:43:46;96139.59;;;13.87;70.37
29239;BME280;16267;48.194;11.546;2023-08-08T02:46:12;96133.09;;;13.84;70.13
29239;BME280;16267;48.194;11.546;2023-08-08T02:48:37;96132.72;;;13.82;70.42
29239;BME280;16267;48.194;11.546;2023-08-08T02:51:03;96137.38;;;13.82;70.49
29239;BME280;16267;48.194;11.546;2023-08-08T02:53:29;96137.81;;;13.80;70.34
29239;BME280;16267;48.194;11.546;2023-08-08T02:55:55;96132.81;;;13.79;70.51
29239;BME280;16267;48.194;11.546;2023-08-08T02:58:20;96133.25;;;13.77;70.29
29239;BME280;16267;48.194;11.546;2023-08-08T03:00:46;96138.28;;;13.75;70.15
29239;BME280;16267;48.194;11.546;2023-08-08T03:03:12;96140.25;;;13.75;70.36
29239;BME280;16267;48.194;11.546;2023-08-08T03:05:37;96148.72;;;13.73;70.48
29239;BME280;16267;48.194;11.546;2023-08-08T03:08:04;96142.59;;;13.73;70.33
29239;BME280;16267;48.194;11.546;2023-08-08T03:10:29;96143.78;;;13.72;70.51
29239;BME280;16267;48.194;11.546;2023-08-08T03:13:04;96139.97;;;13.69;70.44
29239;BME280;16267;48.194;11.546;2023-08-08T03:15:30;96137.28;;;13.69;70.42
29239;BME280;16267;48.194;11.546;2023-08-08T03:17:56;96141.88;;;13.69;70.33
29239;BME280;16267;48.194;11.546;2023-08-08T03:20:22;96136.91;;;13.67;70.49
29239;BME280;16267;48.194;11.546;2023-08-08T03:22:47;96136.16;;;13.67;70.80
29239;BME280;16267;48.194;11.546;2023-08-08T03:25:13;96136.56;;;13.65;70.77
29239;BME280;16267;48.194;11.546;2023-08-08T03:27:45;96138.50;;;13.65;70.57
29239;BME280;16267;48.194;11.546;2023-08-08T03:30:12;96133.50;;;13.63;70.42
29239;BME280;16267;48.194;11.546;2023-08-08T03:32:38;96133.94;;;13.61;70.82
29239;BME280;16267;48.194;11.546;2023-08-08T03:35:05;96132.41;;;13.60;70.76
29239;BME280;16267;48.194;11.546;2023-08-08T03:37:31;96135.09;;;13.60;71.10
29239;BME280;16267;48.194;11.546;2023-08-08T03:39:57;96137.81;;;13.60;71.18
29239;BME280;16267;48.194;11.546;2023-08-08T03:42:23;96128.97;;;13.60;71.24
29239;BME280;16267;48.194;11.546;2023-08-08T03:44:48;96128.97;;;13.60;71.22
29239;BME280;16267;48.194;11.546;2023-08-08T03:47:14;96132.09;;;13.58;71.30
29239;BME280;16267;48.194;11.546;2023-08-08T03:49:40;96135.53;;;13.59;70.96
29239;BME280;16267;48.194;11.546;2023-08-08T03:52:20;96135.94;;;13.57;70.89
29239;BME280;16267;48.194;11.546;2023-08-08T03:54:46;96135.53;;;13.59;70.94
29239;BME280;16267;48.194;11.546;2023-08-08T03:57:12;96128.63;;;13.58;71.14
29239;BME280;16267;48.194;11.546;2023-08-08T03:59:39;96132.09;;;13.58;71.31
29239;BME280;16267;48.194;11.546;2023-08-08T04:02:04;96129.78;;;13.57;71.13
29239;BME280;16267;48.194;11.546;2023-08-08T04:04:30;96136.72;;;13.58;71.09
29239;BME280;16267;48.194;11.546;2023-08-08T04:06:57;96139.41;;;13.58;71.28
29239;BME280;16267;48.194;11.546;2023-08-08T04:09:23;96141.34;;;13.57;71.26
29239;BME280;16267;48.194;11.546;2023-08-08T04:11:48;96138.63;;;13.57;71.53
29239;BME280;16267;48.194;11.546;2023-08-08T04:14:14;96142.13;;;13.58;71.74
29239;BME280;16267;48.194;11.546;2023-08-08T04:16:40;96143.28;;;13.57;71.71
29239;BME280;16267;48.194;11.546;2023-08-08T04:19:06;96141.34;;;13.57;71.91
29239;BME280;16267;48.194;11.546;2023-08-08T04:21:49;96147.91;;;13.56;71.68
29239;BME280;16267;48.194;11.546;2023-08-08T04:24:15;96144.03;;;13.57;71.75
29239;BME280;16267;48.194;11.546;2023-08-08T04:26:41;96148.25;;;13.58;71.91
29239;BME280;16267;48.194;11.546;2023-08-08T04:29:06;96144.81;;;13.58;72.04
29239;BME280;16267;48.194;11.546;2023-08-08T04:31:32;96146.72;;;13.57;71.89
29239;BME280;16267;48.194;11.546;2023-08-08T04:33:58;96146.72;;;13.57;72.00
29239;BME280;16267;48.194;11.546;2023-08-08T04:36:27;96152.13;;;13.57;72.02
29239;BME280;16267;48.194;11.546;2023-08-08T04:38:53;96148.25;;;13.58;72.52
29239;BME280;16267;48.194;11.546;2023-08-08T04:41:19;96145.56;;;13.58;72.66
29239;BME280;16267;48.194;11.546;2023-08-08T04:43:54;96144.03;;;13.57;72.66
29239;BME280;16267;48.194;11.546;2023-08-08T04:46:20;96149.78;;;13.59;72.88
29239;BME280;16267;48.194;11.546;2023-08-08T04:48:46;96141.69;;;13.59;72.70
29239;BME280;16267;48.194;11.546;2023-08-08T04:51:11;96139.00;;;13.59;72.64
29239;BME280;16267;48.194;11.546;2023-08-08T04:53:37;96142.03;;;13.61;72.76
29239;BME280;16267;48.194;11.546;2023-08-08T04:56:03;96145.50;;;13.62;73.11
29239;BME280;16267;48.194;11.546;2023-08-08T04:58:29;96142.78;;;13.62;73.94
29239;BME280;16267;48.194;11.546;2023-08-08T05:00:55;96145.09;;;13.64;73.61
29239;BME280;16267;48.194;11.546;2023-08-08T05:03:21;96145.09;;;13.64;73.87
29239;BME280;16267;48.194;11.546;2023-08-08T05:05:47;96152.00;;;13.65;73.74
29239;BME280;16267;48.194;11.546;2023-08-08T05:08:13;96152.75;;;13.65;73.79
29239;BME280;16267;48.194;11.546;2023-08-08T05:10:39;96155.78;;;13.67;74.06
29239;BME280;16267;48.194;11.546;2023-08-08T05:13:05;96146.13;;;13.70;74.13
29239;BME280;16267;48.194;11.546;2023-08-08T05:15:31;96144.94;;;13.71;74.25
29239;BME280;16267;48.194;11.546;2023-08-08T05:17:56;96138.38;;;13.72;74.38
29239;BME280;16267;48.194;11.546;2023-08-08T05:20:22;96131.34;;;13.74;74.66
29239;BME280;16267;48.194;11.546;2023-08-08T05:22:48;96140.25;;;13.75;73.98
29239;BME280;16267;48.194;11.546;2023-08-08T05:25:14;96136.34;;;13.76;74.37
29239;BME280;16267;48.194;11.546;2023-08-08T05:27:40;96142.09;;;13.78;74.19
29239;BME280;16267;48.194;11.546;2023-08-08T05:30:06;96133.91;;;13.81;74.33
29239;BME280;16267;48.194;11.546;2023-08-08T05:32:32;96139.25;;;13.85;74.25
29239;BME280;16267;48.194;11.546;2023-08-08T05:34:58;96137.25;;;13.89;74.20
29239;BME280;16267;48.194;11.546;2023-08-08T05:37:26;96139.44;;;13.94;74.78
29239;BME280;16267;48.194;11.546;2023-08-08T05:39:52;96141.31;;;13.97;74.73
29239;BME280;16267;48.194;11.546;2023-08-08T05:42:18;96144.69;;;14.01;74.60
29239;BME280;16267;48.194;11.546;2023-08-08T05:44:43;96131.88;;;14.05;75.32
29239;BME280;16267;48.194;11.546;2023-08-08T05:47:10;96142.94;;;14.11;75.32
29239;BME280;16267;48.194;11.546;2023-08-08T05:49:36;96139.75;;;14.16;74.75
29239;BME280;16267;48.194;11.546;2023-08-08T05:52:02;96141.59;;;14.19;73.75
29239;BME280;16267;48.194;11.546;2023-08-08T05:54:28;96139.50;;;14.27;73.82
29239;BME280;16267;48.194;11.546;2023-08-08T05:56:54;96138.66;;;14.30;74.07
29239;BME280;16267;48.194;11.546;2023-08-08T05:59:20;96148.13;;;14.38;74.23
29239;BME280;16267;48.194;11.546;2023-08-08T06:01:45;96145.75;;;14.40;73.56
29239;BME280;16267;48.194;11.546;2023-08-08T06:04:12;96152.25;;;14.43;73.43
29239;BME280;16267;48.194;11.546;2023-08-08T06:06:39;96146.44;;;14.44;73.85
29239;BME280;16267;48.194;11.546;2023-08-08T06:09:05;96151.66;;;14.51;73.05
29239;BME280;16267;48.194;11.546;2023-08-08T06:11:31;96151.88;;;14.61;73.27
29239;BME280;16267;48.194;11.546;2023-08-08T06:13:56;96153.56;;;14.71;73.11
29239;BME280;16267;48.194;11.546;2023-08-08T06:16:22;96151.34;;;14.82;73.51
29239;BME280;16267;48.194;11.546;2023-08-08T06:18:48;96144.59;;;14.90;73.83
29239;BME280;16267;48.194;11.546;2023-08-08T06:21:14;96142.13;;;14.96;74.73
29239;BME280;16267;48.194;11.546;2023-08-08T06:23:40;96146.97;;;15.05;73.40
29239;BME280;16267;48.194;11.546;2023-08-08T06:26:05;96142.44;;;15.14;73.64
29239;BME280;16267;48.194;11.546;2023-08-08T06:28:31;96143.03;;;15.22;73.47
29239;BME280;16267;48.194;11.546;2023-08-08T06:31:01;96134.16;;;15.22;70.96
29239;BME280;16267;48.194;11.546;2023-08-08T06:33:27;96139.81;;;15.27;71.41
29239;BME280;16267;48.194;11.546;2023-08-08T06:35:55;96139.47;;;15.25;68.83
29239;BME280;16267;48.194;11.546;2023-08-08T06:38:20;96139.69;;;15.31;68.39
29239;BME280;16267;48.194;11.546;2023-08-08T06:40:46;96141.78;;;15.39;69.43
29239;BME280;16267;48.194;11.546;2023-08-08T06:43:12;96142.13;;;15.42;69.17
29239;BME280;16267;48.194;11.546;2023-08-08T06:45:39;96138.91;;;15.47;69.79
29239;BME280;16267;48.194;11.546;2023-08-08T06:48:16;96138.28;;;15.55;69.99
29239;BME280;16267;48.194;11.546;2023-08-08T06:50:41;96136.75;;;15.54;67.68
29239;BME280;16267;48.194;11.546;2023-08-08T06:53:07;96135.34;;;15.62;67.54
29239;BME280;16267;48.194;11.546;2023-08-08T06:55:33;96133.84;;;15.61;66.27
29239;BME280;16267;48.194;11.546;2023-08-08T06:57:59;96125.13;;;15.70;67.87
29239;BME280;16267;48.194;11.546;2023-08-08T07:00:24;96131.84;;;15.78;68.36
29239;BME280;16267;48.194;11.546;2023-08-08T07:02:52;96138.69;;;15.83;68.12
29239;BME280;16267;48.194;11.546;2023-08-08T07:05:18;96142.50;;;15.86;66.97
29239;BME280;16267;48.194;11.546;2023-08-08T07:07:44;96134.16;;;15.93;67.08
29239;BME280;16267;48.194;11.546;2023-08-08T07:10:10;96129.81;;;15.95;66.45
29239;BME280;16267;48.194;11.546;2023-08-08T07:12:37;96126.47;;;16.04;66.28
29239;BME280;16267;48.194;11.546;2023-08-08T07:15:05;96132.78;;;16.14;67.39
29239;BME280;16267;48.194;11.546;2023-08-08T07:17:32;96126.03;;;16.18;66.12
29239;BME280;16267;48.194;11.546;2023-08-08T07:19:58;96123.34;;;16.31;66.45
29239;BME280;16267;48.194;11.546;2023-08-08T07:22:24;96127.56;;;16.32;65.81
29239;BME280;16267;48.194;11.546;2023-08-08T07:24:50;96122.25;;;16.28;62.25
29239;BME280;16267;48.194;11.546;2023-08-08T07:27:16;96125.38;;;16.40;64.51
29239;BME280;16267;48.194;11.546;2023-08-08T07:29:41;96128.44;;;16.42;63.37
29239;BME280;16267;48.194;11.546;2023-08-08T07:32:08;96132.09;;;16.48;64.66
29239;BME280;16267;48.194;11.546;2023-08-08T07:34:33;96134.28;;;16.53;64.91
29239;BME280;16267;48.194;11.546;2023-08-08T07:36:59;96128.94;;;16.62;62.73
29239;BME280;16267;48.194;11.546;2023-08-08T07:39:25;96119.19;;;16.65;62.68
29239;BME280;16267;48.194;11.546;2023-08-08T07:41:52;96120.91;;;16.71;62.40
29239;BME280;16267;48.194;11.546;2023-08-08T07:44:17;96120.41;;;16.77;62.09
29239;BME280;16267;48.194;11.546;2023-08-08T07:46:43;96123.75;;;16.81;61.55
29239;BME280;16267;48.194;11.546;2023-08-08T07:49:09;96113.84;;;16.87;61.55
29239;BME280;16267;48.194;11.546;2023-08-08T07:51:35;96122.53;;;16.82;58.37
29239;BME280;16267;48.194;11.546;2023-08-08T07:54:02;96111.25;;;16.96;61.01
29239;BME280;16267;48.194;11.546;2023-08-08T07:56:28;96116.84;;;17.02;61.11
29239;BME280;16267;48.194;11.546;2023-08-08T07:58:54;96111.50;;;17.11;61.60
29239;BME280;16267;48.194;11.546;2023-08-08T08:01:20;96103.56;;;17.16;60.91
29239;BME280;16267;48.194;11.546;2023-08-08T08:03:46;96100.16;;;17.25;61.83
29239;BME280;16267;48.194;11.546;2023-08-08T08:06:12;96093.72;;;17.32;59.82
29239;BME280;16267;48.194;11.546;2023-08-08T08:08:38;96091.84;;;17.42;61.00
29239;BME280;16267;48.194;11.546;2023-08-08T08:11:04;96092.78;;;17.48;60.17
29239;BME280;16267;48.194;11.546;2023-08-08T08:13:30;96092.22;;;17.53;60.60
29239;BME280;16267;48.194;11.546;2023-08-08T08:15:56;96092.25;;;17.62;59.86
29239;BME280;16267;48.194;11.546;2023-08-08T08:18:22;96083.69;;;17.64;59.21
29239;BME280;16267;48.194;11.546;2023-08-08T08:20:48;96084.75;;;17.66;56.94
29239;BME280;16267;48.194;11.546;2023-08-08T08:23:14;96079.19;;;17.70;57.21
29239;BME280;16267;48.194;11.546;2023-08-08T08:25:39;96074.59;;;17.79;58.35
29239;BME280;16267;48.194;11.546;2023-08-08T08:28:05;96079.00;;;17.86;57.69
29239;BME280;16267;48.194;11.546;2023-08-08T08:30:31;96085.81;;;17.91;56.29
29239;BME280;16267;48.194;11.546;2023-08-08T08:32:57;96076.50;;;18.01;58.23
29239;BME280;16267;48.194;11.546;2023-08-08T08:35:47;96076.38;;;18.04;56.44
29239;BME280;16267;48.194;11.546;2023-08-08T08:38:13;96070.81;;;18.17;58.54
29239;BME280;16267;48.194;11.546;2023-08-08T08:40:41;96072.19;;;18.22;56.48
29239;BME280;16267;48.194;11.546;2023-08-08T08:43:09;96079.44;;;18.25;54.66
29239;BME280;16267;48.194;11.546;2023-08-08T08:45:38;96069.16;;;18.20;52.48
29239;BME280;16267;48.194;11.546;2023-08-08T08:48:10;96063.00;;;18.28;54.04
29239;BME280;16267;48.194;11.546;2023-08-08T08:50:37;96072.22;;;18.31;53.19
29239;BME280;16267;48.194;11.546;2023-08-08T08:53:05;96067.88;;;18.43;54.88
29239;BME280;16267;48.194;11.546;2023-08-08T08:55:31;96066.22;;;18.45;53.27
29239;BME280;16267;48.194;11.546;2023-08-08T08:57:57;96061.88;;;18.57;54.57
29239;BME280;16267;48.194;11.546;2023-08-08T09:00:23;96065.34;;;18.58;52.55
29239;BME280;16267;48.194;11.546;2023-08-08T09:02:52;96065.34;;;18.67;53.76
29239;BME280;16267;48.194;11.546;2023-08-08T09:05:21;96057.53;;;18.78;53.82
29239;BME280;16267;48.194;11.546;2023-08-08T09:07:48;96052.72;;;18.82;52.93
29239;BME280;16267;48.194;11.546;2023-08-08T09:10:18;96048.94;;;18.89;51.56
29239;BME280;16267;48.194;11.546;2023-08-08T09:12:45;96060.72;;;18.95;52.19
29239;BME280;16267;48.194;11.546;2023-08-08T09:15:14;96055.44;;;18.91;50.36
29239;BME280;16267;48.194;11.546;2023-08-08T09:17:44;96054.06;;;18.87;50.34
29239;BME280;16267;48.194;11.546;2023-08-08T09:20:13;96053.78;;;18.94;49.79
29239;BME280;16267;48.194;11.546;2023-08-08T09:22:39;96060.41;;;19.11;51.66
29239;BME280;16267;48.194;11.546;2023-08-08T09:25:06;96055.13;;;19.17;50.76
29239;BME280;16267;48.194;11.546;2023-08-08T09:27:34;96053.75;;;19.31;51.01
29239;BME280;16267;48.194;11.546;2023-08-08T09:30:01;96054.78;;;19.33;50.49
29239;BME280;16267;48.194;11.546;2023-08-08T09:32:31;96058.91;;;19.29;48.91
29239;BME280;16267;48.194;11.546;2023-08-08T09:34:58;96049.97;;;19.28;50.22
29239;BME280;16267;48.194;11.546;2023-08-08T09:37:26;96046.63;;;19.33;51.15
29239;BME280;16267;48.194;11.546;2023-08-08T09:39:59;96042.84;;;19.40;50.19
29239;BME280;16267;48.194;11.546;2023-08-08T09:42:29;96045.56;;;19.40;48.84
29239;BME280;16267;48.194;11.546;2023-08-08T09:44:57;96039.22;;;19.34;48.90
29239;BME280;16267;48.194;11.546;2023-08-08T09:47:24;96037.25;;;19.44;49.05
29239;BME280;16267;48.194;11.546;2023-08-08T09:49:50;96042.22;;;19.45;49.41
29239;BME280;16267;48.194;11.546;2023-08-08T09:52:17;96033.31;;;19.45;49.13
29239;BME280;16267;48.194;11.546;2023-08-08T09:54:43;96034.63;;;19.58;49.58
29239;BME280;16267;48.194;11.546;2023-08-08T09:57:09;96033.25;;;19.63;49.15
29239;BME280;16267;48.194;11.546;2023-08-08T09:59:35;96023.28;;;19.69;49.34
29239;BME280;16267;48.194;11.546;2023-08-08T10:02:05;96029.03;;;19.62;48.14
29239;BME280;16267;48.194;11.546;2023-08-08T10:04:32;96026.19;;;19.66;48.53
29239;BME280;16267;48.194;11.546;2023-08-08T10:07:00;96023.09;;;19.82;49.73
29239;BME280;16267;48.194;11.546;2023-08-08T10:09:26;96026.53;;;19.92;48.32
29239;BME280;16267;48.194;11.546;2023-08-08T10:11:55;96024.03;;;20.03;48.38
29239;BME280;16267;48.194;11.546;2023-08-08T10:14:35;96014.94;;;20.06;46.70
29239;BME280;16267;48.194;11.546;2023-08-08T10:17:06;96025.81;;;20.15;47.42
29239;BME280;16267;48.194;11.546;2023-08-08T10:19:33;96023.22;;;20.21;47.53
29239;BME280;16267;48.194;11.546;2023-08-08T10:22:07;96021.41;;;20.18;46.31
29239;BME280;16267;48.194;11.546;2023-08-08T10:24:38;96029.13;;;20.19;47.69
29239;BME280;16267;48.194;11.546;2023-08-08T10:27:04;96030.16;;;20.22;47.66
29239;BME280;16267;48.194;11.546;2023-08-08T10:29:33;96023.84;;;20.16;45.62
29239;BME280;16267;48.194;11.546;2023-08-08T10:32:05;96034.03;;;20.06;44.67
29239;BME280;16267;48.194;11.546;2023-08-08T10:34:40;96029.09;;;19.95;44.28
29239;BME280;16267;48.194;11.546;2023-08-08T10:37:17;96026.09;;;19.84;43.83
29239;BME280;16267;48.194;11.546;2023-08-08T10:39:59;96028.94;;;19.90;43.69
29239;BME280;16267;48.194;11.546;2023-08-08T10:42:27;96025.31;;;19.93;44.39
29239;BME280;16267;48.194;11.546;2023-08-08T10:45:02;96022.25;;;20.00;44.98
29239;BME280;16267;48.194;11.546;2023-08-08T10:47:37;96018.91;;;20.05;44.77
29239;BME280;16267;48.194;11.546;2023-08-08T10:50:11;96012.59;;;19.99;44.00
29239;BME280;16267;48.194;11.546;2023-08-08T10:58:09;96010.66;;;20.14;43.61
29239;BME280;16267;48.194;11.546;2023-08-08T11:00:37;96017.75;;;20.21;43.83
29239;BME280;16267;48.194;11.546;2023-08-08T11:03:08;96017.34;;;20.13;42.82
29239;BME280;16267;48.194;11.546;2023-08-08T11:05:36;96014.81;;;20.10;42.65
29239;BME280;16267;48.194;11.546;2023-08-08T11:08:04;96010.56;;;20.09;42.55
29239;BME280;16267;48.194;11.546;2023-08-08T11:10:38;96008.72;;;20.15;41.77
29239;BME280;16267;48.194;11.546;2023-08-08T11:13:06;96007.03;;;20.17;42.47
29239;BME280;16267;48.194;11.546;2023-08-08T11:15:34;96001.97;;;20.25;43.32
29239;BME280;16267;48.194;11.546;2023-08-08T11:18:01;96004.19;;;20.36;43.38
29239;BME280;16267;48.194;11.546;2023-08-08T11:20:35;95992.50;;;20.20;41.31
29239;BME280;16267;48.194;11.546;2023-08-08T11:23:02;95990.00;;;20.32;41.81
29239;BME280;16267;48.194;11.546;2023-08-08T11:25:30;95994.00;;;20.45;43.40
29239;BME280;16267;48.194;11.546;2023-08-08T11:27:58;95993.88;;;20.40;41.59
29239;BME280;16267;48.194;11.546;2023-08-08T11:30:29;95991.44;;;20.42;41.85
29239;BME280;16267;48.194;11.546;2023-08-08T11:32:55;95991.72;;;20.44;41.24
29239;BME280;16267;48.194;11.546;2023-08-08T11:35:23;95992.47;;;20.54;42.04
29239;BME280;16267;48.194;11.546;2023-08-08T11:37:54;95995.75;;;20.58;41.73
29239;BME280;16267;48.194;11.546;2023-08-08T11:40:22;95991.97;;;20.55;41.69
29239;BME280;16267;48.194;11.546;2023-08-08T11:42:51;95986.88;;;20.48;41.27
29239;BME280;16267;48.194;11.546;2023-08-08T11:45:18;95992.28;;;20.57;42.21
29239;BME280;16267;48.194;11.546;2023-08-08T11:47:48;95993.88;;;20.64;43.35
29239;BME280;16267;48.194;11.546;2023-08-08T11:50:14;95979.41;;;20.72;41.70
29239;BME280;16267;48.194;11.546;2023-08-08T11:52:42;95968.06;;;20.89;43.40
29239;BME280;16267;48.194;11.546;2023-08-08T11:55:12;95964.97;;;20.96;42.18
29239;BME280;16267;48.194;11.546;2023-08-08T11:57:39;95959.72;;;21.07;41.31
29239;BME280;16267;48.194;11.546;2023-08-08T12:00:10;95951.72;;;21.19;41.19
29239;BME280;16267;48.194;11.546;2023-08-08T12:02:44;95957.66;;;21.32;42.04
29239;BME280;16267;48.194;11.546;2023-08-08T12:05:14;95960.91;;;21.36;40.39
29239;BME280;16267;48.194;11.546;2023-08-08T12:07:47;95954.72;;;21.35;40.70
29239;BME280;16267;48.194;11.546;2023-08-08T12:10:19;95961.31;;;21.29;38.65
29239;BME280;16267;48.194;11.546;2023-08-08T12:12:47;95962.06;;;21.29;38.62
29239;BME280;16267;48.194;11.546;2023-08-08T12:15:17;95956.44;;;21.18;37.56
29239;BME280;16267;48.194;11.546;2023-08-08T12:17:43;95966.00;;;21.28;39.49
29239;BME280;16267;48.194;11.546;2023-08-08T12:20:09;95957.34;;;21.30;38.00
29239;BME280;16267;48.194;11.546;2023-08-08T12:22:35;95960.38;;;21.32;39.23
29239;BME280;16267;48.194;11.546;2023-08-08T12:25:01;95960.66;;;21.34;39.25
29239;BME280;16267;48.194;11.546;2023-08-08T12:27:29;95962.16;;;21.35;38.50
29239;BME280;16267;48.194;11.546;2023-08-08T12:29:55;95960.38;;;21.32;38.47
29239;BME280;16267;48.194;11.546;2023-08-08T12:32:21;95958.59;;;21.44;39.17
29239;BME280;16267;48.194;11.546;2023-08-08T12:34:52;95953.13;;;21.44;38.04
29239;BME280;16267;48.194;11.546;2023-08-08T12:37:17;95950.41;;;21.44;38.08
29239;BME280;16267;48.194;11.546;2023-08-08T12:39:43;95950.41;;;21.44;37.94
29239;BME280;16267;48.194;11.546;2023-08-08T12:42:09;95944.66;;;21.56;38.19
29239;BME280;16267;48.194;11.546;2023-08-08T12:44:35;95949.72;;;21.64;39.52
29239;BME280;16267;48.194;11.546;2023-08-08T12:47:01;95946.41;;;21.74;39.26
29239;BME280;16267;48.194;11.546;2023-08-08T12:49:27;95941.97;;;21.77;38.19
29239;BME280;16267;48.194;11.546;2023-08-08T12:51:52;95942.78;;;21.83;39.53
29239;BME280;16267;48.194;11.546;2023-08-08T12:54:21;95955.50;;;21.86;38.51
29239;BME280;16267;48.194;11.546;2023-08-08T12:56:47;95941.66;;;21.90;39.51
29239;BME280;16267;48.194;11.546;2023-08-08T12:59:13;95944.31;;;21.69;37.59
29239;BME280;16267;48.194;11.546;2023-08-08T13:01:39;95952.88;;;21.77;39.37
29239;BME280;16267;48.194;11.546;2023-08-08T13:04:05;95948.91;;;21.78;39.10
29239;BME280;16267;48.194;11.546;2023-08-08T13:06:31;95945.66;;;21.74;38.38